Airfield :
LOGIN :

Register | Disclaimer

   EN    FR    IT 

 










Legend :    VFR   Marginal VFR   IFR   Intensive IFR   Very Intensive IFR
Visi :
Ceiling :
>= 8 km
>= 3000ft
5 to 8 km
1000 to 3000 ft
1500m to 5 km
500 to 1000 ft
800 to 1500m
200 to 500 ft
< 800m
< 200 ft
Symbols :   Thunderstorms  Fog  Heavy snow  Heavy precipitations  Wind > 20 kt
SIGMETs :     Misc.  Thunderstorms  Icing  Turbulence  Mountain Waves  Volcanic Ashes






- Airport Elevation : 13 ft
- IATA code : GOA


LIMJ - Genoa Cristoforo Colombo

CURRENT METAR :
  • 191650Z 28004KT CAVOK 13/08 Q1019

EXPIRED METARs :
  • 191620Z 27004KT CAVOK 14/08 Q1019
  • 191550Z 25005KT 9999 FEW024 14/07 Q1019
  • 191520Z 24004KT 9999 FEW024 14/08 Q1019
  • 191450Z 21003KT 9999 FEW024 14/08 Q1019
  • 191420Z 22004KT 9999 FEW024 14/08 Q1019

TAF TAF LIMJ
Valid from the 19 at 12:00 until the 20 at 12:00 UTC


191100Z 1912/2012 04006KT CAVOK
TEMPO 1912/1916 21010KT



MET'MAP, your aeronautical weather chart ! - Copyright ORBIFLY December 2007 - Disclaimer

ORBIFLY MET'MAP TEAM :

Programming & Development : Alexandra Zaïnal
Concept & original design : Baudouin d'Aumeries
Assistance for programming : Marc-Olivier Méhu
Technical & hardware support : Manuel Goepfert

Contact : metmap@orbifly.com




SOURCES & CREDITS :

   NOAA